Maike D — V2FO4 — position and weather

sailwx.info

Track history (hours):
 
Tides and Currents Weather Stations Pressure Air Temp Water Temp Dewpoint Dewpoint Depression Visibility Wind Speed Wind Dir Waves Ship Positions

Maike D

Last reported at 2015-Apr-10 07:24 UTC. Time now 2015-May-23 02:50 UTC.
Position N 51°15' E 004°14'.
Warning: this ship's position is 42 days out of date.

Length 133 m; draft 6.1 m.

Type: Ship (hazmat cat A). MMSI: 305739000.

Date/timePositionNaut miles runAvg speedWind from/ knotsBaromVisibWave heightAir tempDewpointWater temp
2015-Apr-10 07:24N 51°15' E 004°14'0 0.0
2015-Apr-10 06:30N 51°15' E 004°14'0 0.0
2015-Apr-10 05:27N 51°15' E 004°14'0 0.0
2015-Apr-10 04:33N 51°15' E 004°14'0 0.0
2015-Apr-10 03:33N 51°15' E 004°14'2 1.9
2015-Apr-10 02:33N 51°16' E 004°17'2 2.2
2015-Apr-10 01:33N 51°17' E 004°19'7 7.0
2015-Apr-10 00:33N 51°23' E 004°13'7 6.7
2015-Apr-09 23:33N 51°24' E 004°02'9 9.4
2015-Apr-09 22:33N 51°21' E 003°48'1110.6
2015-Apr-09 21:33N 51°25' E 003°32'1111.1
2015-Apr-09 20:33N 51°24' E 003°14'8 8.4
2015-Apr-09 19:34N 51°24' E 003°01'1313.1
2015-Apr-09 18:33N 51°22' E 002°40'6 6.1
2015-Apr-09 17:33N 51°22' E 002°30'9 9.2
2015-Apr-09 16:33N 51°18' E 002°17'1111.4
2015-Apr-09 15:34N 51°12' E 002°02'1515.1
2015-Apr-09 14:33N 51°03' E 001°42'1915.6
2015-Apr-09 13:19N 50°47' E 001°25'1214.3
2015-Apr-09 12:28N 50°37' E 001°14'7514.2
2015-Apr-09 07:09N 50°12' W 000°37'712.5
2015-Apr-09 06:34N 50°10' W 000°48'1512.4
2015-Apr-09 05:22N 50°06' W 001°10'1011.3
2015-Apr-09 04:31N 50°04' W 001°25'  
2015-Apr-04 19:19N 50°34' E 000°18'1215.6
2015-Apr-04 18:34N 50°38' E 000°36'3417.2
2015-Apr-04 16:34N 50°60' E 001°18'1615.9
2015-Apr-04 15:34N 51°10' E 001°37'1414.1
2015-Apr-04 14:34N 51°21' E 001°52'1312.4
2015-Apr-04 13:32N 51°22' E 002°12'1313.1
2015-Apr-04 12:33N 51°23' E 002°33'1313.4
2015-Apr-04 11:33N 51°23' E 002°54'1414.3
2015-Apr-04 10:33N 51°25' E 003°17'1312.9
2015-Apr-04 09:33N 51°25' E 003°37'1312.5
2015-Apr-04 08:34N 51°24' E 003°57'1010.4
2015-Apr-04 07:34N 51°22' E 004°14'6 6.2
2015-Apr-04 06:34N 51°16' E 004°17'1 1.3
2015-Apr-04 05:33N 51°16' E 004°15'1 0.7
2015-Apr-04 04:18N 51°15' E 004°14'0 0.0
2015-Apr-04 03:33N 51°15' E 004°14'0 0.0
2015-Apr-04 02:32N 51°15' E 004°14'0 0.0
2015-Apr-04 01:32N 51°15' E 004°14'0 0.0
2015-Apr-04 00:32N 51°15' E 004°14'0 0.0
2015-Apr-03 23:32N 51°15' E 004°14'0 0.0
2015-Apr-03 22:32N 51°15' E 004°14'0 0.0
2015-Apr-03 21:32N 51°15' E 004°14'0 0.0
2015-Apr-03 20:32N 51°15' E 004°14'0 0.0
2015-Apr-03 19:32N 51°15' E 004°14'0 0.0
2015-Apr-03 18:26N 51°15' E 004°14'0 0.0
2015-Apr-03 17:32N 51°15' E 004°14'0 0.0
2015-Apr-03 16:32N 51°15' E 004°14'0 0.0
2015-Apr-03 15:32N 51°15' E 004°14'0 0.0
2015-Apr-03 14:32N 51°15' E 004°14'0 0.0
2015-Apr-03 13:32N 51°15' E 004°14'0 0.0
2015-Apr-03 12:29N 51°15' E 004°14'0 0.0
2015-Apr-03 11:32N 51°15' E 004°14'0 0.0
2015-Apr-03 10:29N 51°15' E 004°14'0 0.0
2015-Apr-03 09:32N 51°15' E 004°14'0 0.0
2015-Apr-03 08:26N 51°15' E 004°14'0 0.0
2015-Apr-03 07:32N 51°15' E 004°14'0 0.0
2015-Apr-03 06:29N 51°15' E 004°14'0 0.0
2015-Apr-03 05:32N 51°15' E 004°14'0 0.0
2015-Apr-03 04:32N 51°15' E 004°14'0 0.0
2015-Apr-03 03:32N 51°15' E 004°14'0 0.0
2015-Apr-03 02:32N 51°15' E 004°14'0 0.0
2015-Apr-03 01:26N 51°15' E 004°14'0 0.0
2015-Apr-03 00:26N 51°15' E 004°14'0 0.0
2015-Apr-02 23:32N 51°15' E 004°14'0 0.0
2015-Apr-02 22:32N 51°15' E 004°14'0 0.0
2015-Apr-02 21:32N 51°15' E 004°14'0 0.0
2015-Apr-02 20:32N 51°15' E 004°14'0 0.0
2015-Apr-02 19:32N 51°15' E 004°14'0 0.0
2015-Apr-02 18:32N 51°15' E 004°14'0 0.0
2015-Apr-02 17:32N 51°15' E 004°14'0 0.0
2015-Apr-02 16:32N 51°15' E 004°14'0 0.0
2015-Apr-02 15:31N 51°15' E 004°14'0 0.0
2015-Apr-02 14:31N 51°15' E 004°14'0 0.0
2015-Apr-02 13:25N 51°15' E 004°14'0 0.0
2015-Apr-02 12:22N 51°15' E 004°14'0 0.0
2015-Apr-02 11:28N 51°15' E 004°14'0 0.0
2015-Apr-02 10:31N 51°15' E 004°14'0 0.0
2015-Apr-02 09:31N 51°15' E 004°14'0 0.0
2015-Apr-02 08:28N 51°15' E 004°14'0 0.0
2015-Apr-02 07:31N 51°15' E 004°14'0 0.0
2015-Apr-02 06:31N 51°15' E 004°14'0 0.0
2015-Apr-02 05:28N 51°15' E 004°14'0 0.0
2015-Apr-02 04:31N 51°15' E 004°14'0 0.0
2015-Apr-02 03:31N 51°15' E 004°14'0 0.0
2015-Apr-02 02:31N 51°15' E 004°14'0 0.0
2015-Apr-02 01:28N 51°15' E 004°14'0 0.0
2015-Apr-02 00:31N 51°15' E 004°14'0 0.0
2015-Apr-01 23:31N 51°15' E 004°14'0 0.0
2015-Apr-01 22:28N 51°15' E 004°14'0 0.0
2015-Apr-01 21:22N 51°15' E 004°14'0 0.0
2015-Apr-01 20:31N 51°15' E 004°14'0 0.0
2015-Apr-01 19:28N 51°15' E 004°14'0 0.0
2015-Apr-01 18:28N 51°15' E 004°14'0 0.0
2015-Apr-01 17:28N 51°15' E 004°14'0 0.0
2015-Apr-01 16:31N 51°15' E 004°14'0 0.0
2015-Apr-01 15:31N 51°15' E 004°14'0 0.0
2015-Apr-01 14:31N 51°15' E 004°14'0 0.0
2015-Apr-01 13:31N 51°15' E 004°14'0 0.0
2015-Apr-01 12:31N 51°15' E 004°14'0 0.0
2015-Apr-01 11:31N 51°15' E 004°14'0 0.0
2015-Apr-01 10:31N 51°15' E 004°14'0 0.0
2015-Apr-01 09:31N 51°15' E 004°14'0 0.0
2015-Apr-01 08:28N 51°15' E 004°14'0 0.0
2015-Apr-01 07:31N 51°15' E 004°14'0 0.0
2015-Apr-01 06:28N 51°15' E 004°14'0 0.0
2015-Apr-01 05:31N 51°15' E 004°14'0 0.0
2015-Apr-01 04:30N 51°15' E 004°14'0 0.0
2015-Apr-01 03:33N 51°15' E 004°14'0 0.0
2015-Apr-01 02:30N 51°15' E 004°14'0 0.0
2015-Apr-01 01:33N 51°15' E 004°14'0 0.0
2015-Apr-01 00:33N 51°15' E 004°14'0 0.0
2015-Mar-31 23:33N 51°15' E 004°14'0 0.0
2015-Mar-31 22:33N 51°15' E 004°14'0 0.0
2015-Mar-31 21:33N 51°15' E 004°14'0 0.0
2015-Mar-31 20:30N 51°15' E 004°14'0 0.0
2015-Mar-31 19:33N 51°15' E 004°14'0 0.0
2015-Mar-31 18:33N 51°15' E 004°14'0 0.0
2015-Mar-31 17:27N 51°15' E 004°14'0 0.0
2015-Mar-31 16:33N 51°15' E 004°14'0 0.0
2015-Mar-31 15:27N 51°15' E 004°14'0 0.0
2015-Mar-31 14:30N 51°15' E 004°14'0 0.0
2015-Mar-31 13:33N 51°15' E 004°14'0 0.0
2015-Mar-31 12:33N 51°15' E 004°14'0 0.0
2015-Mar-31 11:30N 51°15' E 004°14'0 0.0
2015-Mar-31 10:33N 51°15' E 004°14'0 0.0
2015-Mar-31 09:33N 51°15' E 004°14'0 0.0
2015-Mar-31 08:30N 51°15' E 004°14'0 0.0
2015-Mar-31 07:33N 51°15' E 004°14'  
Track history (hours):
 
Tides and Currents Weather Stations Pressure Air Temp Water Temp Dewpoint Dewpoint Depression Visibility Wind Speed Wind Dir Waves Ship Positions

Maike D

Last reported at 2015-Apr-10 07:24 UTC. Time now 2015-May-23 02:50 UTC.
Position N 51°15' E 004°14'.
Warning: this ship's position is 42 days out of date.

Length 133 m; draft 6.1 m.

Type: Ship (hazmat cat A). MMSI: 305739000.

Date/timePositionNaut miles runAvg speedWind from/ knotsBaromVisibWave heightAir tempDewpointWater temp
2015-Apr-10 07:24N 51°15' E 004°14'0 0.0
2015-Apr-10 06:30N 51°15' E 004°14'0 0.0
2015-Apr-10 05:27N 51°15' E 004°14'0 0.0
2015-Apr-10 04:33N 51°15' E 004°14'0 0.0
2015-Apr-10 03:33N 51°15' E 004°14'2 1.9
2015-Apr-10 02:33N 51°16' E 004°17'2 2.2
2015-Apr-10 01:33N 51°17' E 004°19'7 7.0
2015-Apr-10 00:33N 51°23' E 004°13'7 6.7
2015-Apr-09 23:33N 51°24' E 004°02'9 9.4
2015-Apr-09 22:33N 51°21' E 003°48'1110.6
2015-Apr-09 21:33N 51°25' E 003°32'1111.1
2015-Apr-09 20:33N 51°24' E 003°14'8 8.4
2015-Apr-09 19:34N 51°24' E 003°01'1313.1
2015-Apr-09 18:33N 51°22' E 002°40'6 6.1
2015-Apr-09 17:33N 51°22' E 002°30'9 9.2
2015-Apr-09 16:33N 51°18' E 002°17'1111.4
2015-Apr-09 15:34N 51°12' E 002°02'1515.1
2015-Apr-09 14:33N 51°03' E 001°42'1915.6
2015-Apr-09 13:19N 50°47' E 001°25'1214.3
2015-Apr-09 12:28N 50°37' E 001°14'7514.2
2015-Apr-09 07:09N 50°12' W 000°37'712.5
2015-Apr-09 06:34N 50°10' W 000°48'1512.4
2015-Apr-09 05:22N 50°06' W 001°10'1011.3
2015-Apr-09 04:31N 50°04' W 001°25'  
2015-Apr-04 19:19N 50°34' E 000°18'1215.6
2015-Apr-04 18:34N 50°38' E 000°36'3417.2
2015-Apr-04 16:34N 50°60' E 001°18'1615.9
2015-Apr-04 15:34N 51°10' E 001°37'1414.1
2015-Apr-04 14:34N 51°21' E 001°52'1312.4
2015-Apr-04 13:32N 51°22' E 002°12'1313.1
2015-Apr-04 12:33N 51°23' E 002°33'1313.4
2015-Apr-04 11:33N 51°23' E 002°54'1414.3
2015-Apr-04 10:33N 51°25' E 003°17'1312.9
2015-Apr-04 09:33N 51°25' E 003°37'1312.5
2015-Apr-04 08:34N 51°24' E 003°57'1010.4
2015-Apr-04 07:34N 51°22' E 004°14'6 6.2
2015-Apr-04 06:34N 51°16' E 004°17'1 1.3
2015-Apr-04 05:33N 51°16' E 004°15'1 0.7
2015-Apr-04 04:18N 51°15' E 004°14'0 0.0
2015-Apr-04 03:33N 51°15' E 004°14'0 0.0
2015-Apr-04 02:32N 51°15' E 004°14'0 0.0
2015-Apr-04 01:32N 51°15' E 004°14'0 0.0
2015-Apr-04 00:32N 51°15' E 004°14'0 0.0
2015-Apr-03 23:32N 51°15' E 004°14'0 0.0
2015-Apr-03 22:32N 51°15' E 004°14'0 0.0
2015-Apr-03 21:32N 51°15' E 004°14'0 0.0
2015-Apr-03 20:32N 51°15' E 004°14'0 0.0
2015-Apr-03 19:32N 51°15' E 004°14'0 0.0
2015-Apr-03 18:26N 51°15' E 004°14'0 0.0
2015-Apr-03 17:32N 51°15' E 004°14'0 0.0
2015-Apr-03 16:32N 51°15' E 004°14'0 0.0
2015-Apr-03 15:32N 51°15' E 004°14'0 0.0
2015-Apr-03 14:32N 51°15' E 004°14'0 0.0
2015-Apr-03 13:32N 51°15' E 004°14'0 0.0
2015-Apr-03 12:29N 51°15' E 004°14'0 0.0
2015-Apr-03 11:32N 51°15' E 004°14'0 0.0
2015-Apr-03 10:29N 51°15' E 004°14'0 0.0
2015-Apr-03 09:32N 51°15' E 004°14'0 0.0
2015-Apr-03 08:26N 51°15' E 004°14'0 0.0
2015-Apr-03 07:32N 51°15' E 004°14'0 0.0
2015-Apr-03 06:29N 51°15' E 004°14'0 0.0
2015-Apr-03 05:32N 51°15' E 004°14'0 0.0
2015-Apr-03 04:32N 51°15' E 004°14'0 0.0
2015-Apr-03 03:32N 51°15' E 004°14'0 0.0
2015-Apr-03 02:32N 51°15' E 004°14'0 0.0
2015-Apr-03 01:26N 51°15' E 004°14'0 0.0
2015-Apr-03 00:26N 51°15' E 004°14'0 0.0
2015-Apr-02 23:32N 51°15' E 004°14'0 0.0
2015-Apr-02 22:32N 51°15' E 004°14'0 0.0
2015-Apr-02 21:32N 51°15' E 004°14'0 0.0
2015-Apr-02 20:32N 51°15' E 004°14'0 0.0
2015-Apr-02 19:32N 51°15' E 004°14'0 0.0
2015-Apr-02 18:32N 51°15' E 004°14'0 0.0
2015-Apr-02 17:32N 51°15' E 004°14'0 0.0
2015-Apr-02 16:32N 51°15' E 004°14'0 0.0
2015-Apr-02 15:31N 51°15' E 004°14'0 0.0
2015-Apr-02 14:31N 51°15' E 004°14'0 0.0
2015-Apr-02 13:25N 51°15' E 004°14'0 0.0
2015-Apr-02 12:22N 51°15' E 004°14'0 0.0
2015-Apr-02 11:28N 51°15' E 004°14'0 0.0
2015-Apr-02 10:31N 51°15' E 004°14'0 0.0
2015-Apr-02 09:31N 51°15' E 004°14'0 0.0
2015-Apr-02 08:28N 51°15' E 004°14'0 0.0
2015-Apr-02 07:31N 51°15' E 004°14'0 0.0
2015-Apr-02 06:31N 51°15' E 004°14'0 0.0
2015-Apr-02 05:28N 51°15' E 004°14'0 0.0
2015-Apr-02 04:31N 51°15' E 004°14'0 0.0
2015-Apr-02 03:31N 51°15' E 004°14'0 0.0
2015-Apr-02 02:31N 51°15' E 004°14'0 0.0
2015-Apr-02 01:28N 51°15' E 004°14'0 0.0
2015-Apr-02 00:31N 51°15' E 004°14'0 0.0
2015-Apr-01 23:31N 51°15' E 004°14'0 0.0
2015-Apr-01 22:28N 51°15' E 004°14'0 0.0
2015-Apr-01 21:22N 51°15' E 004°14'0 0.0
2015-Apr-01 20:31N 51°15' E 004°14'0 0.0
2015-Apr-01 19:28N 51°15' E 004°14'0 0.0
2015-Apr-01 18:28N 51°15' E 004°14'0 0.0
2015-Apr-01 17:28N 51°15' E 004°14'0 0.0
2015-Apr-01 16:31N 51°15' E 004°14'0 0.0
2015-Apr-01 15:31N 51°15' E 004°14'0 0.0
2015-Apr-01 14:31N 51°15' E 004°14'0 0.0
2015-Apr-01 13:31N 51°15' E 004°14'0 0.0
2015-Apr-01 12:31N 51°15' E 004°14'0 0.0
2015-Apr-01 11:31N 51°15' E 004°14'0 0.0
2015-Apr-01 10:31N 51°15' E 004°14'0 0.0
2015-Apr-01 09:31N 51°15' E 004°14'0 0.0
2015-Apr-01 08:28N 51°15' E 004°14'0 0.0
2015-Apr-01 07:31N 51°15' E 004°14'0 0.0
2015-Apr-01 06:28N 51°15' E 004°14'0 0.0
2015-Apr-01 05:31N 51°15' E 004°14'0 0.0
2015-Apr-01 04:30N 51°15' E 004°14'0 0.0
2015-Apr-01 03:33N 51°15' E 004°14'0 0.0
2015-Apr-01 02:30N 51°15' E 004°14'0 0.0
2015-Apr-01 01:33N 51°15' E 004°14'0 0.0
2015-Apr-01 00:33N 51°15' E 004°14'0 0.0
2015-Mar-31 23:33N 51°15' E 004°14'0 0.0
2015-Mar-31 22:33N 51°15' E 004°14'0 0.0
2015-Mar-31 21:33N 51°15' E 004°14'0 0.0
2015-Mar-31 20:30N 51°15' E 004°14'0 0.0
2015-Mar-31 19:33N 51°15' E 004°14'0 0.0
2015-Mar-31 18:33N 51°15' E 004°14'0 0.0
2015-Mar-31 17:27N 51°15' E 004°14'0 0.0
2015-Mar-31 16:33N 51°15' E 004°14'0 0.0
2015-Mar-31 15:27N 51°15' E 004°14'0 0.0
2015-Mar-31 14:30N 51°15' E 004°14'0 0.0
2015-Mar-31 13:33N 51°15' E 004°14'0 0.0
2015-Mar-31 12:33N 51°15' E 004°14'0 0.0
2015-Mar-31 11:30N 51°15' E 004°14'0 0.0
2015-Mar-31 10:33N 51°15' E 004°14'0 0.0
2015-Mar-31 09:33N 51°15' E 004°14'0 0.0
2015-Mar-31 08:30N 51°15' E 004°14'0 0.0
2015-Mar-31 07:33N 51°15' E 004°14'  

Dump ship's entire track history